sensor_id;sensor_type;location;lat;lon;timestamp;P1;durP1;ratioP1;P2;durP2;ratioP2
20486;SDS011;10402;49.012;8.370;2023-06-22T00:01:55;619.70;;;591.90;;
20486;SDS011;10402;49.012;8.370;2023-06-22T00:04:20;611.50;;;583.73;;
20486;SDS011;10402;49.012;8.370;2023-06-22T00:06:46;626.77;;;598.43;;
20486;SDS011;10402;49.012;8.370;2023-06-22T00:09:11;634.70;;;606.00;;
20486;SDS011;10402;49.012;8.370;2023-06-22T00:11:37;610.37;;;583.23;;
20486;SDS011;10402;49.012;8.370;2023-06-22T00:14:03;632.03;;;603.17;;
20486;SDS011;10402;49.012;8.370;2023-06-22T00:16:29;624.77;;;596.30;;
20486;SDS011;10402;49.012;8.370;2023-06-22T00:18:56;637.70;;;608.70;;
20486;SDS011;10402;49.012;8.370;2023-06-22T00:21:23;650.87;;;620.63;;
20486;SDS011;10402;49.012;8.370;2023-06-22T00:23:48;649.03;;;618.70;;
20486;SDS011;10402;49.012;8.370;2023-06-22T00:26:14;660.10;;;629.07;;
20486;SDS011;10402;49.012;8.370;2023-06-22T00:28:40;641.37;;;611.63;;
20486;SDS011;10402;49.012;8.370;2023-06-22T00:31:05;655.43;;;624.83;;
20486;SDS011;10402;49.012;8.370;2023-06-22T00:33:31;661.43;;;630.43;;
20486;SDS011;10402;49.012;8.370;2023-06-22T00:35:56;660.47;;;629.93;;
20486;SDS011;10402;49.012;8.370;2023-06-22T00:38:22;651.60;;;621.60;;
20486;SDS011;10402;49.012;8.370;2023-06-22T00:40:48;610.50;;;582.13;;
20486;SDS011;10402;49.012;8.370;2023-06-22T00:43:13;584.40;;;557.13;;
20486;SDS011;10402;49.012;8.370;2023-06-22T00:45:39;574.97;;;548.13;;
20486;SDS011;10402;49.012;8.370;2023-06-22T00:48:05;550.30;;;525.17;;
20486;SDS011;10402;49.012;8.370;2023-06-22T00:50:32;563.03;;;537.83;;
20486;SDS011;10402;49.012;8.370;2023-06-22T00:52:59;563.10;;;538.47;;
20486;SDS011;10402;49.012;8.370;2023-06-22T00:55:33;573.00;;;547.07;;
20486;SDS011;10402;49.012;8.370;2023-06-22T00:58:02;600.20;;;573.57;;
20486;SDS011;10402;49.012;8.370;2023-06-22T01:00:30;613.93;;;585.93;;
20486;SDS011;10402;49.012;8.370;2023-06-22T01:02:57;603.17;;;575.47;;
20486;SDS011;10402;49.012;8.370;2023-06-22T01:05:23;610.53;;;582.63;;
20486;SDS011;10402;49.012;8.370;2023-06-22T01:10:29;600.10;;;572.70;;
20486;SDS011;10402;49.012;8.370;2023-06-22T01:13:28;615.83;;;587.60;;
20486;SDS011;10402;49.012;8.370;2023-06-22T01:16:00;613.37;;;585.23;;
20486;SDS011;10402;49.012;8.370;2023-06-22T01:18:26;623.33;;;595.17;;
20486;SDS011;10402;49.012;8.370;2023-06-22T01:20:55;603.23;;;576.40;;
20486;SDS011;10402;49.012;8.370;2023-06-22T01:26:20;562.37;;;537.33;;
20486;SDS011;10402;49.012;8.370;2023-06-22T01:28:54;593.07;;;566.73;;
20486;SDS011;10402;49.012;8.370;2023-06-22T01:31:23;592.77;;;566.90;;
20486;SDS011;10402;49.012;8.370;2023-06-22T01:33:52;584.13;;;558.67;;
20486;SDS011;10402;49.012;8.370;2023-06-22T01:36:19;595.30;;;568.70;;
20486;SDS011;10402;49.012;8.370;2023-06-22T01:38:47;622.43;;;593.53;;
20486;SDS011;10402;49.012;8.370;2023-06-22T01:41:14;611.03;;;582.40;;
20486;SDS011;10402;49.012;8.370;2023-06-22T01:43:41;643.47;;;613.03;;
20486;SDS011;10402;49.012;8.370;2023-06-22T01:46:07;630.63;;;601.23;;
20486;SDS011;10402;49.012;8.370;2023-06-22T01:48:33;639.27;;;608.53;;
20486;SDS011;10402;49.012;8.370;2023-06-22T01:50:59;623.70;;;593.27;;
20486;SDS011;10402;49.012;8.370;2023-06-22T01:53:25;615.57;;;585.37;;
20486;SDS011;10402;49.012;8.370;2023-06-22T01:55:50;574.37;;;546.17;;
20486;SDS011;10402;49.012;8.370;2023-06-22T01:58:16;594.33;;;565.40;;
20486;SDS011;10402;49.012;8.370;2023-06-22T02:00:48;568.13;;;540.87;;
20486;SDS011;10402;49.012;8.370;2023-06-22T02:03:19;563.47;;;536.33;;
20486;SDS011;10402;49.012;8.370;2023-06-22T02:05:50;553.17;;;527.10;;
20486;SDS011;10402;49.012;8.370;2023-06-22T02:08:24;564.13;;;537.70;;
20486;SDS011;10402;49.012;8.370;2023-06-22T02:10:53;550.03;;;524.37;;
20486;SDS011;10402;49.012;8.370;2023-06-22T02:13:20;561.13;;;535.53;;
20486;SDS011;10402;49.012;8.370;2023-06-22T02:15:49;562.67;;;537.00;;
20486;SDS011;10402;49.012;8.370;2023-06-22T02:18:15;542.07;;;517.13;;
20486;SDS011;10402;49.012;8.370;2023-06-22T02:20:40;552.50;;;527.03;;
20486;SDS011;10402;49.012;8.370;2023-06-22T02:23:06;542.80;;;518.17;;
20486;SDS011;10402;49.012;8.370;2023-06-22T02:25:32;529.97;;;505.87;;
20486;SDS011;10402;49.012;8.370;2023-06-22T02:27:59;524.90;;;501.27;;
20486;SDS011;10402;49.012;8.370;2023-06-22T02:30:24;547.03;;;522.50;;
20486;SDS011;10402;49.012;8.370;2023-06-22T02:32:50;563.30;;;538.67;;
20486;SDS011;10402;49.012;8.370;2023-06-22T02:35:29;561.07;;;536.53;;
20486;SDS011;10402;49.012;8.370;2023-06-22T02:38:00;533.03;;;510.27;;
20486;SDS011;10402;49.012;8.370;2023-06-22T02:40:27;553.47;;;529.63;;
20486;SDS011;10402;49.012;8.370;2023-06-22T02:42:54;551.90;;;528.17;;
20486;SDS011;10402;49.012;8.370;2023-06-22T02:45:20;550.73;;;527.47;;
20486;SDS011;10402;49.012;8.370;2023-06-22T02:47:45;558.00;;;534.13;;
20486;SDS011;10402;49.012;8.370;2023-06-22T02:50:12;541.33;;;518.13;;
20486;SDS011;10402;49.012;8.370;2023-06-22T02:52:38;544.43;;;520.93;;
20486;SDS011;10402;49.012;8.370;2023-06-22T02:55:04;550.10;;;526.23;;
20486;SDS011;10402;49.012;8.370;2023-06-22T02:57:32;553.43;;;529.33;;
20486;SDS011;10402;49.012;8.370;2023-06-22T02:59:57;538.43;;;515.30;;
20486;SDS011;10402;49.012;8.370;2023-06-22T03:02:23;555.47;;;531.43;;
20486;SDS011;10402;49.012;8.370;2023-06-22T03:04:49;573.93;;;548.47;;
20486;SDS011;10402;49.012;8.370;2023-06-22T03:07:14;542.83;;;519.40;;
20486;SDS011;10402;49.012;8.370;2023-06-22T03:09:42;547.23;;;523.53;;
20486;SDS011;10402;49.012;8.370;2023-06-22T03:12:08;572.93;;;547.13;;
20486;SDS011;10402;49.012;8.370;2023-06-22T03:14:33;594.20;;;567.57;;
20486;SDS011;10402;49.012;8.370;2023-06-22T03:16:59;588.10;;;561.73;;
20486;SDS011;10402;49.012;8.370;2023-06-22T03:19:28;614.77;;;586.97;;
20486;SDS011;10402;49.012;8.370;2023-06-22T03:21:54;602.57;;;575.17;;
20486;SDS011;10402;49.012;8.370;2023-06-22T03:24:20;611.87;;;584.20;;
20486;SDS011;10402;49.012;8.370;2023-06-22T03:26:46;613.57;;;585.80;;
20486;SDS011;10402;49.012;8.370;2023-06-22T03:29:11;640.93;;;611.83;;
20486;SDS011;10402;49.012;8.370;2023-06-22T03:31:37;633.33;;;604.80;;
20486;SDS011;10402;49.012;8.370;2023-06-22T03:34:03;618.87;;;591.03;;
20486;SDS011;10402;49.012;8.370;2023-06-22T03:36:28;642.90;;;613.33;;
20486;SDS011;10402;49.012;8.370;2023-06-22T03:38:54;631.20;;;602.23;;
20486;SDS011;10402;49.012;8.370;2023-06-22T03:41:19;623.20;;;594.87;;
20486;SDS011;10402;49.012;8.370;2023-06-22T03:43:45;612.37;;;583.57;;
20486;SDS011;10402;49.012;8.370;2023-06-22T03:46:10;606.00;;;578.20;;
20486;SDS011;10402;49.012;8.370;2023-06-22T03:48:36;565.30;;;539.77;;
20486;SDS011;10402;49.012;8.370;2023-06-22T03:51:02;570.10;;;544.37;;
20486;SDS011;10402;49.012;8.370;2023-06-22T03:53:28;596.33;;;569.47;;
20486;SDS011;10402;49.012;8.370;2023-06-22T03:55:54;588.43;;;562.47;;
20486;SDS011;10402;49.012;8.370;2023-06-22T03:58:20;589.40;;;563.37;;
20486;SDS011;10402;49.012;8.370;2023-06-22T04:00:46;609.50;;;582.57;;
20486;SDS011;10402;49.012;8.370;2023-06-22T04:03:13;577.87;;;552.73;;
20486;SDS011;10402;49.012;8.370;2023-06-22T04:05:39;572.63;;;547.87;;
20486;SDS011;10402;49.012;8.370;2023-06-22T04:08:05;568.40;;;544.27;;
20486;SDS011;10402;49.012;8.370;2023-06-22T04:10:31;579.57;;;554.63;;
20486;SDS011;10402;49.012;8.370;2023-06-22T04:12:57;577.33;;;552.23;;
20486;SDS011;10402;49.012;8.370;2023-06-22T04:15:22;580.60;;;555.40;;
20486;SDS011;10402;49.012;8.370;2023-06-22T04:17:48;571.17;;;546.13;;
20486;SDS011;10402;49.012;8.370;2023-06-22T04:20:13;601.27;;;574.50;;
20486;SDS011;10402;49.012;8.370;2023-06-22T04:22:39;582.33;;;556.63;;
20486;SDS011;10402;49.012;8.370;2023-06-22T04:25:05;581.40;;;555.67;;
20486;SDS011;10402;49.012;8.370;2023-06-22T04:27:32;599.23;;;571.93;;
20486;SDS011;10402;49.012;8.370;2023-06-22T04:30:03;587.80;;;561.30;;
20486;SDS011;10402;49.012;8.370;2023-06-22T04:32:29;593.17;;;566.03;;
20486;SDS011;10402;49.012;8.370;2023-06-22T04:34:54;610.77;;;582.67;;
20486;SDS011;10402;49.012;8.370;2023-06-22T04:37:20;615.87;;;586.83;;
20486;SDS011;10402;49.012;8.370;2023-06-22T04:39:48;622.43;;;593.10;;
20486;SDS011;10402;49.012;8.370;2023-06-22T04:42:14;636.30;;;605.50;;
20486;SDS011;10402;49.012;8.370;2023-06-22T04:44:40;648.07;;;617.90;;
20486;SDS011;10402;49.012;8.370;2023-06-22T04:47:06;659.07;;;627.80;;
20486;SDS011;10402;49.012;8.370;2023-06-22T04:49:33;656.83;;;625.77;;
20486;SDS011;10402;49.012;8.370;2023-06-22T04:52:03;676.80;;;645.00;;
20486;SDS011;10402;49.012;8.370;2023-06-22T04:54:32;680.17;;;648.30;;
20486;SDS011;10402;49.012;8.370;2023-06-22T04:57:02;647.33;;;617.40;;
20486;SDS011;10402;49.012;8.370;2023-06-22T04:59:30;667.77;;;636.53;;
20486;SDS011;10402;49.012;8.370;2023-06-22T05:01:56;682.43;;;650.40;;
20486;SDS011;10402;49.012;8.370;2023-06-22T05:04:23;676.57;;;644.23;;
20486;SDS011;10402;49.012;8.370;2023-06-22T05:06:51;655.73;;;625.33;;
20486;SDS011;10402;49.012;8.370;2023-06-22T05:09:17;660.03;;;629.20;;
20486;SDS011;10402;49.012;8.370;2023-06-22T05:11:43;654.20;;;623.53;;
20486;SDS011;10402;49.012;8.370;2023-06-22T05:14:09;664.50;;;633.13;;
20486;SDS011;10402;49.012;8.370;2023-06-22T05:16:36;655.27;;;624.20;;
20486;SDS011;10402;49.012;8.370;2023-06-22T05:19:02;665.50;;;633.57;;
20486;SDS011;10402;49.012;8.370;2023-06-22T05:21:28;658.10;;;627.13;;
20486;SDS011;10402;49.012;8.370;2023-06-22T05:23:55;637.07;;;607.40;;
20486;SDS011;10402;49.012;8.370;2023-06-22T05:26:25;644.73;;;614.57;;
20486;SDS011;10402;49.012;8.370;2023-06-22T05:28:51;610.90;;;583.03;;
20486;SDS011;10402;49.012;8.370;2023-06-22T05:31:18;615.83;;;587.83;;
20486;SDS011;10402;49.012;8.370;2023-06-22T05:33:47;598.53;;;571.73;;
20486;SDS011;10402;49.012;8.370;2023-06-22T05:36:14;601.23;;;573.87;;
20486;SDS011;10402;49.012;8.370;2023-06-22T05:38:40;601.17;;;573.73;;
20486;SDS011;10402;49.012;8.370;2023-06-22T05:41:06;613.63;;;585.50;;
20486;SDS011;10402;49.012;8.370;2023-06-22T05:43:32;612.57;;;583.90;;
20486;SDS011;10402;49.012;8.370;2023-06-22T05:45:59;623.03;;;594.43;;
20486;SDS011;10402;49.012;8.370;2023-06-22T05:48:25;630.90;;;601.77;;
20486;SDS011;10402;49.012;8.370;2023-06-22T05:50:51;598.33;;;570.47;;
20486;SDS011;10402;49.012;8.370;2023-06-22T05:53:17;633.30;;;603.60;;
20486;SDS011;10402;49.012;8.370;2023-06-22T05:55:42;619.77;;;590.83;;
20486;SDS011;10402;49.012;8.370;2023-06-22T05:58:08;618.90;;;589.90;;
20486;SDS011;10402;49.012;8.370;2023-06-22T06:00:34;626.00;;;596.73;;
20486;SDS011;10402;49.012;8.370;2023-06-22T06:03:00;621.77;;;593.47;;
20486;SDS011;10402;49.012;8.370;2023-06-22T06:05:31;627.67;;;599.53;;
20486;SDS011;10402;49.012;8.370;2023-06-22T06:07:59;633.80;;;605.00;;
20486;SDS011;10402;49.012;8.370;2023-06-22T06:10:25;637.60;;;608.80;;
20486;SDS011;10402;49.012;8.370;2023-06-22T06:12:51;645.10;;;615.37;;
20486;SDS011;10402;49.012;8.370;2023-06-22T06:15:17;679.33;;;647.10;;
20486;SDS011;10402;49.012;8.370;2023-06-22T06:17:49;620.67;;;592.73;;
20486;SDS011;10402;49.012;8.370;2023-06-22T06:20:19;625.50;;;597.13;;
20486;SDS011;10402;49.012;8.370;2023-06-22T06:22:47;634.57;;;605.73;;
20486;SDS011;10402;49.012;8.370;2023-06-22T06:25:13;636.83;;;607.67;;
20486;SDS011;10402;49.012;8.370;2023-06-22T06:27:44;682.13;;;649.97;;
20486;SDS011;10402;49.012;8.370;2023-06-22T06:30:11;649.50;;;620.20;;
20486;SDS011;10402;49.012;8.370;2023-06-22T06:32:37;669.40;;;637.83;;
20486;SDS011;10402;49.012;8.370;2023-06-22T06:35:08;659.50;;;628.93;;
20486;SDS011;10402;49.012;8.370;2023-06-22T06:37:41;654.93;;;624.13;;
20486;SDS011;10402;49.012;8.370;2023-06-22T06:40:09;655.87;;;625.23;;
20486;SDS011;10402;49.012;8.370;2023-06-22T06:42:36;658.53;;;628.10;;
20486;SDS011;10402;49.012;8.370;2023-06-22T06:45:07;658.30;;;627.17;;
20486;SDS011;10402;49.012;8.370;2023-06-22T06:47:33;655.70;;;625.47;;
20486;SDS011;10402;49.012;8.370;2023-06-22T06:49:59;633.03;;;603.83;;
20486;SDS011;10402;49.012;8.370;2023-06-22T06:52:25;646.47;;;616.30;;
20486;SDS011;10402;49.012;8.370;2023-06-22T06:54:51;637.53;;;608.03;;
20486;SDS011;10402;49.012;8.370;2023-06-22T06:57:17;640.27;;;610.63;;
20486;SDS011;10402;49.012;8.370;2023-06-22T06:59:43;641.43;;;612.17;;
20486;SDS011;10402;49.012;8.370;2023-06-22T07:02:08;629.23;;;600.17;;
20486;SDS011;10402;49.012;8.370;2023-06-22T07:04:34;637.73;;;608.23;;
20486;SDS011;10402;49.012;8.370;2023-06-22T07:07:00;636.67;;;607.60;;
20486;SDS011;10402;49.012;8.370;2023-06-22T07:09:27;646.63;;;616.83;;
20486;SDS011;10402;49.012;8.370;2023-06-22T07:11:53;649.83;;;620.23;;
20486;SDS011;10402;49.012;8.370;2023-06-22T07:14:18;643.27;;;613.87;;
20486;SDS011;10402;49.012;8.370;2023-06-22T07:16:44;619.13;;;591.27;;
20486;SDS011;10402;49.012;8.370;2023-06-22T07:19:11;628.97;;;600.30;;
20486;SDS011;10402;49.012;8.370;2023-06-22T07:21:37;636.57;;;607.50;;
20486;SDS011;10402;49.012;8.370;2023-06-22T07:24:04;614.43;;;586.47;;
20486;SDS011;10402;49.012;8.370;2023-06-22T07:26:30;612.27;;;584.83;;
20486;SDS011;10402;49.012;8.370;2023-06-22T07:28:56;640.23;;;610.93;;
20486;SDS011;10402;49.012;8.370;2023-06-22T07:31:23;702.97;;;667.70;;
20486;SDS011;10402;49.012;8.370;2023-06-22T07:33:49;645.10;;;615.43;;
20486;SDS011;10402;49.012;8.370;2023-06-22T07:36:16;655.33;;;624.70;;
20486;SDS011;10402;49.012;8.370;2023-06-22T07:38:42;660.40;;;629.23;;
20486;SDS011;10402;49.012;8.370;2023-06-22T07:41:07;679.63;;;647.43;;
20486;SDS011;10402;49.012;8.370;2023-06-22T07:43:33;672.73;;;641.07;;
20486;SDS011;10402;49.012;8.370;2023-06-22T07:46:01;692.53;;;659.43;;
20486;SDS011;10402;49.012;8.370;2023-06-22T07:48:28;694.23;;;660.97;;
20486;SDS011;10402;49.012;8.370;2023-06-22T07:50:54;685.83;;;653.17;;
20486;SDS011;10402;49.012;8.370;2023-06-22T07:53:20;702.27;;;668.53;;
20486;SDS011;10402;49.012;8.370;2023-06-22T07:55:46;715.57;;;681.20;;
20486;SDS011;10402;49.012;8.370;2023-06-22T07:58:12;717.20;;;682.90;;
20486;SDS011;10402;49.012;8.370;2023-06-22T08:00:37;736.60;;;700.97;;
20486;SDS011;10402;49.012;8.370;2023-06-22T08:03:03;726.87;;;691.97;;
20486;SDS011;10402;49.012;8.370;2023-06-22T08:05:30;723.57;;;689.27;;
20486;SDS011;10402;49.012;8.370;2023-06-22T08:07:55;715.13;;;680.67;;
20486;SDS011;10402;49.012;8.370;2023-06-22T08:10:21;723.03;;;687.90;;
20486;SDS011;10402;49.012;8.370;2023-06-22T08:12:47;708.90;;;673.23;;
20486;SDS011;10402;49.012;8.370;2023-06-22T08:15:12;694.57;;;660.30;;
20486;SDS011;10402;49.012;8.370;2023-06-22T08:17:38;684.77;;;650.93;;
20486;SDS011;10402;49.012;8.370;2023-06-22T08:20:04;675.60;;;642.37;;
20486;SDS011;10402;49.012;8.370;2023-06-22T08:22:42;671.50;;;638.63;;
20486;SDS011;10402;49.012;8.370;2023-06-22T08:25:09;665.83;;;633.77;;
20486;SDS011;10402;49.012;8.370;2023-06-22T08:27:35;652.60;;;621.53;;
20486;SDS011;10402;49.012;8.370;2023-06-22T08:30:01;651.63;;;620.53;;
20486;SDS011;10402;49.012;8.370;2023-06-22T08:32:27;647.70;;;616.77;;
20486;SDS011;10402;49.012;8.370;2023-06-22T08:34:54;649.77;;;618.60;;
20486;SDS011;10402;49.012;8.370;2023-06-22T08:37:20;655.83;;;623.90;;
20486;SDS011;10402;49.012;8.370;2023-06-22T08:39:48;660.60;;;628.33;;
20486;SDS011;10402;49.012;8.370;2023-06-22T08:42:15;658.97;;;626.63;;
20486;SDS011;10402;49.012;8.370;2023-06-22T08:44:40;660.97;;;628.37;;
20486;SDS011;10402;49.012;8.370;2023-06-22T08:47:06;645.93;;;614.90;;
20486;SDS011;10402;49.012;8.370;2023-06-22T08:49:31;677.57;;;644.33;;
20486;SDS011;10402;49.012;8.370;2023-06-22T08:51:57;646.77;;;615.73;;
20486;SDS011;10402;49.012;8.370;2023-06-22T08:54:22;662.90;;;631.30;;
20486;SDS011;10402;49.012;8.370;2023-06-22T08:56:48;666.73;;;634.77;;
20486;SDS011;10402;49.012;8.370;2023-06-22T08:59:14;673.13;;;641.03;;
20486;SDS011;10402;49.012;8.370;2023-06-22T09:01:39;653.97;;;622.77;;
20486;SDS011;10402;49.012;8.370;2023-06-22T09:04:05;661.60;;;629.90;;
20486;SDS011;10402;49.012;8.370;2023-06-22T09:06:32;668.30;;;636.10;;
20486;SDS011;10402;49.012;8.370;2023-06-22T09:08:57;671.53;;;638.70;;
20486;SDS011;10402;49.012;8.370;2023-06-22T09:11:26;663.47;;;630.57;;
20486;SDS011;10402;49.012;8.370;2023-06-22T09:13:51;670.43;;;638.40;;
20486;SDS011;10402;49.012;8.370;2023-06-22T09:16:18;658.37;;;627.07;;
20486;SDS011;10402;49.012;8.370;2023-06-22T09:18:47;687.73;;;653.03;;
20486;SDS011;10402;49.012;8.370;2023-06-22T09:21:13;668.17;;;636.17;;
20486;SDS011;10402;49.012;8.370;2023-06-22T09:23:38;687.27;;;652.17;;
20486;SDS011;10402;49.012;8.370;2023-06-22T09:26:04;646.67;;;616.00;;
20486;SDS011;10402;49.012;8.370;2023-06-22T09:28:29;667.07;;;634.50;;
20486;SDS011;10402;49.012;8.370;2023-06-22T09:30:55;670.33;;;637.87;;
20486;SDS011;10402;49.012;8.370;2023-06-22T09:33:23;659.67;;;627.73;;
20486;SDS011;10402;49.012;8.370;2023-06-22T09:35:49;671.40;;;638.20;;
20486;SDS011;10402;49.012;8.370;2023-06-22T09:38:15;667.20;;;634.40;;
20486;SDS011;10402;49.012;8.370;2023-06-22T09:40:41;681.93;;;647.47;;
20486;SDS011;10402;49.012;8.370;2023-06-22T09:43:07;661.00;;;627.33;;
20486;SDS011;10402;49.012;8.370;2023-06-22T09:45:33;667.90;;;635.67;;
20486;SDS011;10402;49.012;8.370;2023-06-22T09:47:58;857.93;;;809.43;;
20486;SDS011;10402;49.012;8.370;2023-06-22T09:50:24;791.77;;;749.07;;
20486;SDS011;10402;49.012;8.370;2023-06-22T09:52:49;857.23;;;809.07;;
20486;SDS011;10402;49.012;8.370;2023-06-22T09:55:19;745.53;;;706.93;;
20486;SDS011;10402;49.012;8.370;2023-06-22T09:57:45;858.60;;;811.33;;
20486;SDS011;10402;49.012;8.370;2023-06-22T10:00:11;848.57;;;802.23;;
20486;SDS011;10402;49.012;8.370;2023-06-22T10:02:43;842.00;;;796.20;;
20486;SDS011;10402;49.012;8.370;2023-06-22T10:05:09;831.13;;;785.93;;
20486;SDS011;10402;49.012;8.370;2023-06-22T10:07:35;801.93;;;758.40;;
20486;SDS011;10402;49.012;8.370;2023-06-22T10:10:05;854.60;;;807.63;;
20486;SDS011;10402;49.012;8.370;2023-06-22T10:12:31;860.93;;;813.50;;
20486;SDS011;10402;49.012;8.370;2023-06-22T10:14:56;858.70;;;811.63;;
20486;SDS011;10402;49.012;8.370;2023-06-22T10:17:22;860.30;;;813.00;;
20486;SDS011;10402;49.012;8.370;2023-06-22T10:19:48;857.40;;;810.40;;
20486;SDS011;10402;49.012;8.370;2023-06-22T10:22:13;855.20;;;807.87;;
20486;SDS011;10402;49.012;8.370;2023-06-22T10:24:38;851.97;;;805.17;;
20486;SDS011;10402;49.012;8.370;2023-06-22T10:27:09;847.43;;;800.43;;
20486;SDS011;10402;49.012;8.370;2023-06-22T10:29:35;830.80;;;785.10;;
20486;SDS011;10402;49.012;8.370;2023-06-22T10:32:01;826.27;;;780.73;;
20486;SDS011;10402;49.012;8.370;2023-06-22T10:34:27;749.67;;;710.73;;
20486;SDS011;10402;49.012;8.370;2023-06-22T10:36:52;852.50;;;805.80;;
20486;SDS011;10402;49.012;8.370;2023-06-22T10:39:18;838.90;;;792.93;;
20486;SDS011;10402;49.012;8.370;2023-06-22T10:41:43;825.67;;;780.57;;
20486;SDS011;10402;49.012;8.370;2023-06-22T10:44:09;831.10;;;785.60;;
20486;SDS011;10402;49.012;8.370;2023-06-22T10:46:35;865.73;;;817.27;;
20486;SDS011;10402;49.012;8.370;2023-06-22T10:49:00;742.77;;;703.70;;
20486;SDS011;10402;49.012;8.370;2023-06-22T10:51:29;849.23;;;801.83;;
20486;SDS011;10402;49.012;8.370;2023-06-22T10:53:56;826.90;;;780.53;;
20486;SDS011;10402;49.012;8.370;2023-06-22T10:56:21;847.87;;;800.53;;
20486;SDS011;10402;49.012;8.370;2023-06-22T10:58:47;844.37;;;796.90;;
20486;SDS011;10402;49.012;8.370;2023-06-22T11:01:13;809.93;;;765.00;;
20486;SDS011;10402;49.012;8.370;2023-06-22T11:03:39;834.23;;;787.20;;
20486;SDS011;10402;49.012;8.370;2023-06-22T11:06:04;721.90;;;684.17;;
20486;SDS011;10402;49.012;8.370;2023-06-22T11:08:30;853.00;;;803.93;;
20486;SDS011;10402;49.012;8.370;2023-06-22T11:10:55;833.70;;;786.40;;
20486;SDS011;10402;49.012;8.370;2023-06-22T11:13:21;818.53;;;772.90;;
20486;SDS011;10402;49.012;8.370;2023-06-22T11:15:46;855.37;;;806.47;;
20486;SDS011;10402;49.012;8.370;2023-06-22T11:18:12;857.47;;;808.50;;
20486;SDS011;10402;49.012;8.370;2023-06-22T11:20:38;858.87;;;809.67;;
20486;SDS011;10402;49.012;8.370;2023-06-22T11:23:04;877.90;;;827.70;;
20486;SDS011;10402;49.012;8.370;2023-06-22T11:25:31;857.73;;;809.33;;
20486;SDS011;10402;49.012;8.370;2023-06-22T11:27:56;833.97;;;787.00;;
20486;SDS011;10402;49.012;8.370;2023-06-22T11:30:22;846.30;;;798.20;;
20486;SDS011;10402;49.012;8.370;2023-06-22T11:32:48;859.40;;;811.00;;
20486;SDS011;10402;49.012;8.370;2023-06-22T11:35:13;839.17;;;792.70;;
20486;SDS011;10402;49.012;8.370;2023-06-22T11:37:39;841.10;;;793.90;;
20486;SDS011;10402;49.012;8.370;2023-06-22T11:40:04;843.00;;;795.80;;
20486;SDS011;10402;49.012;8.370;2023-06-22T11:42:33;834.73;;;788.03;;
20486;SDS011;10402;49.012;8.370;2023-06-22T11:44:59;851.03;;;802.70;;
20486;SDS011;10402;49.012;8.370;2023-06-22T11:47:25;856.77;;;808.17;;
20486;SDS011;10402;49.012;8.370;2023-06-22T11:49:50;835.73;;;788.63;;
20486;SDS011;10402;49.012;8.370;2023-06-22T11:52:16;857.37;;;808.53;;
20486;SDS011;10402;49.012;8.370;2023-06-22T11:54:42;842.80;;;795.13;;
20486;SDS011;10402;49.012;8.370;2023-06-22T11:57:08;853.03;;;805.03;;
20486;SDS011;10402;49.012;8.370;2023-06-22T11:59:34;862.10;;;812.80;;
20486;SDS011;10402;49.012;8.370;2023-06-22T12:01:59;838.63;;;791.47;;
20486;SDS011;10402;49.012;8.370;2023-06-22T12:04:25;837.97;;;790.83;;
20486;SDS011;10402;49.012;8.370;2023-06-22T12:06:50;851.70;;;803.37;;
20486;SDS011;10402;49.012;8.370;2023-06-22T12:09:16;857.73;;;808.43;;
20486;SDS011;10402;49.012;8.370;2023-06-22T12:11:41;849.17;;;800.17;;
20486;SDS011;10402;49.012;8.370;2023-06-22T12:14:07;858.87;;;809.40;;
20486;SDS011;10402;49.012;8.370;2023-06-22T12:16:32;850.90;;;801.97;;
20486;SDS011;10402;49.012;8.370;2023-06-22T12:18:58;850.73;;;802.30;;
20486;SDS011;10402;49.012;8.370;2023-06-22T12:21:23;840.33;;;791.83;;
20486;SDS011;10402;49.012;8.370;2023-06-22T12:23:49;848.20;;;799.60;;
20486;SDS011;10402;49.012;8.370;2023-06-22T12:26:15;860.57;;;811.03;;
20486;SDS011;10402;49.012;8.370;2023-06-22T12:28:40;850.43;;;801.90;;
20486;SDS011;10402;49.012;8.370;2023-06-22T12:31:06;847.87;;;799.53;;
20486;SDS011;10402;49.012;8.370;2023-06-22T12:33:31;845.70;;;796.97;;
20486;SDS011;10402;49.012;8.370;2023-06-22T12:35:57;838.83;;;791.20;;
20486;SDS011;10402;49.012;8.370;2023-06-22T12:38:22;856.43;;;807.20;;
20486;SDS011;10402;49.012;8.370;2023-06-22T12:40:50;842.93;;;794.87;;
20486;SDS011;10402;49.012;8.370;2023-06-22T12:43:16;841.93;;;793.73;;
20486;SDS011;10402;49.012;8.370;2023-06-22T12:45:41;852.93;;;803.90;;
20486;SDS011;10402;49.012;8.370;2023-06-22T12:48:07;845.70;;;797.33;;
20486;SDS011;10402;49.012;8.370;2023-06-22T12:50:33;842.97;;;794.63;;
20486;SDS011;10402;49.012;8.370;2023-06-22T12:52:59;866.00;;;816.13;;
20486;SDS011;10402;49.012;8.370;2023-06-22T12:55:27;854.93;;;806.20;;
20486;SDS011;10402;49.012;8.370;2023-06-22T12:57:52;859.43;;;810.10;;
20486;SDS011;10402;49.012;8.370;2023-06-22T13:00:18;865.70;;;815.97;;
20486;SDS011;10402;49.012;8.370;2023-06-22T13:02:44;855.33;;;806.30;;
20486;SDS011;10402;49.012;8.370;2023-06-22T13:05:10;865.13;;;815.00;;
20486;SDS011;10402;49.012;8.370;2023-06-22T13:07:36;867.77;;;817.80;;
20486;SDS011;10402;49.012;8.370;2023-06-22T13:10:01;866.20;;;816.57;;
20486;SDS011;10402;49.012;8.370;2023-06-22T13:12:27;876.23;;;826.30;;
20486;SDS011;10402;49.012;8.370;2023-06-22T13:14:53;873.20;;;822.67;;
20486;SDS011;10402;49.012;8.370;2023-06-22T13:17:18;868.97;;;818.87;;
20486;SDS011;10402;49.012;8.370;2023-06-22T13:19:44;884.93;;;834.00;;
20486;SDS011;10402;49.012;8.370;2023-06-22T13:22:29;886.23;;;835.20;;
20486;SDS011;10402;49.012;8.370;2023-06-22T13:24:55;874.57;;;824.53;;
20486;SDS011;10402;49.012;8.370;2023-06-22T13:27:22;878.40;;;827.73;;
20486;SDS011;10402;49.012;8.370;2023-06-22T13:29:47;887.70;;;835.87;;
20486;SDS011;10402;49.012;8.370;2023-06-22T13:32:13;871.70;;;821.77;;
20486;SDS011;10402;49.012;8.370;2023-06-22T13:34:38;899.30;;;847.03;;
20486;SDS011;10402;49.012;8.370;2023-06-22T13:37:04;898.57;;;846.90;;
20486;SDS011;10402;49.012;8.370;2023-06-22T13:39:30;910.63;;;857.40;;
20486;SDS011;10402;49.012;8.370;2023-06-22T13:41:56;897.23;;;845.47;;
20486;SDS011;10402;49.012;8.370;2023-06-22T13:44:22;886.47;;;835.80;;
20486;SDS011;10402;49.012;8.370;2023-06-22T13:46:48;904.70;;;852.43;;
20486;SDS011;10402;49.012;8.370;2023-06-22T13:49:13;903.70;;;851.30;;
20486;SDS011;10402;49.012;8.370;2023-06-22T13:51:39;897.70;;;846.13;;
20486;SDS011;10402;49.012;8.370;2023-06-22T13:54:04;886.43;;;835.13;;
20486;SDS011;10402;49.012;8.370;2023-06-22T13:56:30;905.03;;;852.10;;
20486;SDS011;10402;49.012;8.370;2023-06-22T13:58:55;899.30;;;847.57;;